createdAt,value
2023-04-21T00:00:57.096Z,32.57
2023-04-21T00:03:28.345Z,26.40
2023-04-21T00:06:01.668Z,26.30
2023-04-21T00:08:31.457Z,27.27
2023-04-21T00:11:01.240Z,32.63
2023-04-21T00:13:31.054Z,29.70
2023-04-21T00:16:00.775Z,35.37
2023-04-21T00:18:30.614Z,30.33
2023-04-21T00:21:03.069Z,29.87
2023-04-21T00:23:32.848Z,28.30
2023-04-21T00:26:03.244Z,30.20
2023-04-21T00:28:33.156Z,33.03
2023-04-21T00:31:02.965Z,30.57
2023-04-21T00:33:32.795Z,34.50
2023-04-21T00:36:05.087Z,32.73
2023-04-21T00:38:34.849Z,32.77
2023-04-21T00:41:04.596Z,32.63
2023-04-21T00:43:34.358Z,33.17
2023-04-21T00:46:04.167Z,29.97
2023-04-21T00:48:34.624Z,35.33
2023-04-21T00:51:07.140Z,32.50
2023-04-21T00:53:37.834Z,37.40
2023-04-21T00:56:09.405Z,37.50
2023-04-21T00:58:41.707Z,39.00
2023-04-21T01:01:11.510Z,34.67
2023-04-21T01:03:41.484Z,39.97
2023-04-21T01:06:15.436Z,35.60
2023-04-21T01:08:45.650Z,39.23
2023-04-21T01:11:18.779Z,40.07
2023-04-21T01:13:48.522Z,40.70
2023-04-21T01:16:21.901Z,43.87
2023-04-21T01:18:52.228Z,39.63
2023-04-21T01:21:24.856Z,37.70
2023-04-21T01:23:57.557Z,39.00
2023-04-21T01:26:27.290Z,39.90
2023-04-21T01:28:59.935Z,36.90
2023-04-21T01:31:29.823Z,39.97
2023-04-21T01:33:59.637Z,43.27
2023-04-21T01:36:29.468Z,38.27
2023-04-21T01:39:01.828Z,41.27
2023-04-21T01:41:32.939Z,39.13
2023-04-21T01:44:02.711Z,37.27
2023-04-21T01:46:34.177Z,36.13
2023-04-21T01:49:04.099Z,36.77
2023-04-21T01:51:36.164Z,37.07
2023-04-21T01:54:08.623Z,39.23
2023-04-21T01:56:38.439Z,36.53
2023-04-21T01:59:08.224Z,39.83
2023-04-21T02:01:38.370Z,39.67
2023-04-21T02:04:08.581Z,37.83
2023-04-21T02:06:38.565Z,34.97
2023-04-21T02:09:12.446Z,43.57
2023-04-21T02:11:42.529Z,36.90
2023-04-21T02:14:12.352Z,36.10
2023-04-21T02:16:43.582Z,38.17
2023-04-21T02:19:13.374Z,35.00
2023-04-21T02:21:43.094Z,33.30
2023-04-21T02:24:15.514Z,37.13
2023-04-21T02:26:45.407Z,33.23
2023-04-21T02:29:15.186Z,41.50
2023-04-21T02:31:58.850Z,30.07
2023-04-21T02:34:33.043Z,32.00
2023-04-21T02:37:02.781Z,30.63
2023-04-21T02:39:35.077Z,34.47
2023-04-21T02:42:04.875Z,35.43
2023-04-21T02:44:34.611Z,29.70
2023-04-21T02:47:04.350Z,29.83
2023-04-21T02:49:34.071Z,26.47
2023-04-21T02:52:03.771Z,30.47
2023-04-21T02:54:36.129Z,42.27
2023-04-21T02:57:06.300Z,23.90
2023-04-21T02:59:36.466Z,35.30
2023-04-21T03:02:06.508Z,31.07
2023-04-21T03:04:36.463Z,26.40
2023-04-21T03:07:07.362Z,30.23
2023-04-21T03:09:39.676Z,31.37
2023-04-21T03:12:09.719Z,27.77
2023-04-21T03:14:39.471Z,29.40
2023-04-21T03:17:09.855Z,29.63
2023-04-21T03:19:39.611Z,29.97
2023-04-21T03:22:09.704Z,30.83
2023-04-21T03:24:42.019Z,30.13
2023-04-21T03:27:11.775Z,33.10
2023-04-21T03:29:41.630Z,25.83
2023-04-21T03:32:11.546Z,27.27
2023-04-21T03:34:41.357Z,36.30
2023-04-21T03:37:12.001Z,29.30
2023-04-21T03:39:44.346Z,33.13
2023-04-21T03:42:14.442Z,33.33
2023-04-21T03:44:44.245Z,29.10
2023-04-21T03:47:13.990Z,26.60
2023-04-21T03:49:43.704Z,35.40
2023-04-21T03:52:13.425Z,28.03
2023-04-21T03:54:45.735Z,33.90
2023-04-21T03:57:16.072Z,30.20
2023-04-21T03:59:46.657Z,33.73
2023-04-21T04:02:16.458Z,33.10
2023-04-21T04:04:46.322Z,32.90
2023-04-21T04:07:17.767Z,29.30
2023-04-21T04:09:50.071Z,32.63
2023-04-21T04:12:19.785Z,29.73
2023-04-21T04:14:49.528Z,34.30
2023-04-21T04:17:19.284Z,29.03
2023-04-21T04:19:48.987Z,28.20
2023-04-21T04:22:19.427Z,31.80
2023-04-21T04:24:51.769Z,25.80
2023-04-21T04:27:21.660Z,27.03
2023-04-21T04:29:51.658Z,31.60
2023-04-21T04:32:21.929Z,26.83
2023-04-21T04:34:52.515Z,27.53
2023-04-21T04:37:22.229Z,26.63
2023-04-21T04:39:56.773Z,31.90
2023-04-21T04:42:26.733Z,26.00
2023-04-21T04:44:57.506Z,28.33
2023-04-21T04:47:27.358Z,29.93
2023-04-21T04:49:57.112Z,31.30
2023-04-21T04:52:27.056Z,28.77
2023-04-21T04:54:59.381Z,25.13
2023-04-21T04:57:29.115Z,31.40
2023-04-21T04:59:59.023Z,21.37
2023-04-21T05:02:28.932Z,22.77
2023-04-21T05:04:59.272Z,23.30
2023-04-21T05:07:29.046Z,24.87
2023-04-21T05:10:01.444Z,21.17
2023-04-21T05:12:31.227Z,19.70
2023-04-21T05:15:01.108Z,19.70
2023-04-21T05:17:31.412Z,30.60
2023-04-21T05:20:01.301Z,20.63
2023-04-21T05:22:31.217Z,24.10
2023-04-21T05:25:03.518Z,26.50
2023-04-21T05:27:34.171Z,24.30
2023-04-21T05:30:03.886Z,24.73
2023-04-21T05:32:34.311Z,23.50
2023-04-21T05:35:04.296Z,21.67
2023-04-21T05:37:34.031Z,22.20
2023-04-21T05:40:06.784Z,26.33
2023-04-21T05:42:36.569Z,30.17
2023-04-21T05:45:07.537Z,24.87
2023-04-21T05:47:37.644Z,30.90
2023-04-21T05:50:08.118Z,25.23
2023-04-21T05:52:38.141Z,26.47
2023-04-21T05:55:10.856Z,22.13
2023-04-21T05:57:40.561Z,22.87
2023-04-21T06:00:12.016Z,23.53
2023-04-21T06:02:41.967Z,23.00
2023-04-21T06:05:11.804Z,25.87
2023-04-21T06:07:41.728Z,26.03
2023-04-21T06:10:16.187Z,23.97
2023-04-21T06:12:46.038Z,22.10
2023-04-21T06:15:15.874Z,23.80
2023-04-21T06:17:45.627Z,21.70
2023-04-21T06:20:15.630Z,22.97
2023-04-21T06:22:45.351Z,20.97
2023-04-21T06:25:17.753Z,17.60
2023-04-21T06:27:48.278Z,17.27
2023-04-21T06:30:18.424Z,35.13
2023-04-21T06:32:48.828Z,18.97
2023-04-21T06:35:20.683Z,18.27
2023-04-21T06:37:50.518Z,17.30
2023-04-21T06:40:22.981Z,27.47
2023-04-21T06:42:52.731Z,17.53
2023-04-21T06:45:22.672Z,18.33
2023-04-21T06:47:52.427Z,24.77
2023-04-21T06:50:22.190Z,19.00
2023-04-21T06:52:51.940Z,24.03
2023-04-21T06:55:24.334Z,20.87
2023-04-21T06:57:54.079Z,19.40
2023-04-21T07:00:23.837Z,22.73
2023-04-21T07:02:53.720Z,17.80
2023-04-21T07:05:23.530Z,24.40
2023-04-21T07:07:53.694Z,22.10
2023-04-21T07:10:26.184Z,20.77
2023-04-21T07:12:56.041Z,20.67
2023-04-21T07:15:25.886Z,17.97
2023-04-21T07:17:55.786Z,17.13
2023-04-21T07:20:25.510Z,21.13
2023-04-21T07:22:55.274Z,15.97
2023-04-21T07:25:27.623Z,18.30
2023-04-21T07:27:57.384Z,13.13
2023-04-21T07:30:27.328Z,23.13
2023-04-21T07:32:57.157Z,24.03
2023-04-21T07:35:27.012Z,24.80
2023-04-21T07:37:57.044Z,15.20
2023-04-21T07:40:30.682Z,19.10
2023-04-21T07:43:00.440Z,18.53
2023-04-21T07:45:30.161Z,19.80
2023-04-21T07:47:59.924Z,14.63
2023-04-21T07:50:29.855Z,22.00
2023-04-21T07:52:59.637Z,19.93
2023-04-21T07:55:32.511Z,30.50
2023-04-21T07:58:02.315Z,17.53
2023-04-21T08:00:32.048Z,22.40
2023-04-21T08:03:01.927Z,24.67
2023-04-21T08:05:35.030Z,19.17
2023-04-21T08:08:08.108Z,16.57
2023-04-21T08:10:40.423Z,38.97
2023-04-21T08:13:10.729Z,17.87
2023-04-21T08:15:40.569Z,23.63
2023-04-21T08:18:11.685Z,17.67
2023-04-21T08:20:41.489Z,17.43
2023-04-21T08:23:11.260Z,20.17
2023-04-21T08:25:43.695Z,25.00
2023-04-21T08:28:14.356Z,19.87
2023-04-21T08:30:44.390Z,14.30
2023-04-21T08:33:14.210Z,23.60
2023-04-21T08:35:59.161Z,19.90
2023-04-21T08:38:31.388Z,25.43
2023-04-21T08:41:06.418Z,23.27
2023-04-21T08:43:36.189Z,18.10
2023-04-21T08:46:10.084Z,20.23
2023-04-21T08:48:40.841Z,19.03
2023-04-21T08:51:12.438Z,14.80
2023-04-21T08:53:44.856Z,24.70
2023-04-21T08:56:17.203Z,17.63
2023-04-21T08:58:47.000Z,20.27
2023-04-21T09:01:16.940Z,16.10
2023-04-21T09:03:47.211Z,18.87
2023-04-21T09:06:17.467Z,25.47
2023-04-21T09:08:56.738Z,17.93
2023-04-21T09:11:29.097Z,17.40
2023-04-21T09:14:00.755Z,18.60
2023-04-21T09:16:36.042Z,17.67
2023-04-21T09:19:05.816Z,25.33
2023-04-21T09:21:35.558Z,19.47
2023-04-21T09:24:08.885Z,19.93
2023-04-21T09:26:41.964Z,32.10
2023-04-21T09:29:12.182Z,16.13
2023-04-21T09:31:42.125Z,16.40
2023-04-21T09:34:21.808Z,17.43
2023-04-21T09:36:52.135Z,17.73
2023-04-21T09:39:40.475Z,25.97
2023-04-21T09:42:18.190Z,22.83
2023-04-21T09:44:56.308Z,21.10
2023-04-21T09:47:42.891Z,12.77
2023-04-21T09:50:16.374Z,31.37
2023-04-21T09:52:48.906Z,18.47
2023-04-21T09:55:20.132Z,22.40
2023-04-21T09:57:54.830Z,22.03
2023-04-21T10:00:28.821Z,14.80
2023-04-21T10:03:01.270Z,22.90
2023-04-21T10:05:32.066Z,26.23
2023-04-21T10:08:02.033Z,13.60
2023-04-21T10:10:34.399Z,21.60
2023-04-21T10:13:07.696Z,26.57
2023-04-21T10:15:41.433Z,33.07
2023-04-21T10:18:16.255Z,12.77
2023-04-21T10:20:59.564Z,24.93
2023-04-21T10:23:34.186Z,20.00
2023-04-21T10:26:09.634Z,25.97
2023-04-21T10:28:47.084Z,22.97
2023-04-21T10:31:21.532Z,11.40
2023-04-21T10:34:15.837Z,17.33
2023-04-21T10:36:50.219Z,12.00
2023-04-21T10:39:30.541Z,10.73
2023-04-21T10:42:01.487Z,18.10
2023-04-21T10:44:34.229Z,18.87
2023-04-21T10:47:04.001Z,15.70
2023-04-21T10:49:33.805Z,17.77
2023-04-21T10:52:08.374Z,17.03
2023-04-21T10:54:46.145Z,16.33
2023-04-21T10:57:17.931Z,26.27
2023-04-21T10:59:51.184Z,14.40
2023-04-21T11:02:22.177Z,16.90
2023-04-21T11:04:54.528Z,11.97
2023-04-21T11:07:25.752Z,12.27
2023-04-21T11:10:00.525Z,20.67
2023-04-21T11:12:32.164Z,16.93
2023-04-21T11:15:07.597Z,24.40
2023-04-21T11:17:39.407Z,18.10
2023-04-21T11:20:10.931Z,19.13
2023-04-21T11:22:40.903Z,21.10
2023-04-21T11:25:20.112Z,20.47
2023-04-21T11:27:57.515Z,26.97
2023-04-21T11:30:36.999Z,44.73
2023-04-21T11:33:07.117Z,12.40
2023-04-21T11:35:43.722Z,13.33
2023-04-21T11:38:14.989Z,11.63
2023-04-21T11:40:49.372Z,16.80
2023-04-21T11:43:19.344Z,21.27
2023-04-21T11:45:54.227Z,12.43
2023-04-21T11:48:24.007Z,18.83
2023-04-21T11:50:53.861Z,10.97
2023-04-21T11:53:24.026Z,6.73
2023-04-21T11:55:57.074Z,10.70
2023-04-21T11:58:27.052Z,17.33
2023-04-21T12:00:59.403Z,26.87
2023-04-21T12:03:29.463Z,16.90
2023-04-21T12:06:00.133Z,10.87
2023-04-21T12:08:32.521Z,18.60
2023-04-21T12:11:03.037Z,10.80
2023-04-21T12:13:33.278Z,13.80
2023-04-21T12:16:08.911Z,16.73
2023-04-21T12:18:39.174Z,12.93
2023-04-21T12:21:09.193Z,9.73
2023-04-21T12:23:39.380Z,11.23
2023-04-21T12:26:09.206Z,12.93
2023-04-21T12:28:39.106Z,20.10
2023-04-21T12:31:11.589Z,15.23
2023-04-21T12:33:41.909Z,18.37
2023-04-21T12:36:11.731Z,14.30
2023-04-21T12:38:41.782Z,7.53
2023-04-21T12:41:11.534Z,16.13
2023-04-21T12:43:41.283Z,30.83
2023-04-21T12:46:13.707Z,28.47
2023-04-21T12:48:43.581Z,5.67
2023-04-21T12:51:13.331Z,11.33
2023-04-21T12:53:43.144Z,13.20
2023-04-21T12:56:13.240Z,10.03
2023-04-21T12:58:43.078Z,11.37
2023-04-21T13:01:16.268Z,15.83
2023-04-21T13:03:46.149Z,13.17
2023-04-21T13:06:16.164Z,24.07
2023-04-21T13:08:45.907Z,9.87
2023-04-21T13:11:15.685Z,10.37
2023-04-21T13:13:45.401Z,9.03
2023-04-21T13:16:18.398Z,11.47
2023-04-21T13:18:48.925Z,10.07
2023-04-21T13:21:18.718Z,8.80
2023-04-21T13:23:48.576Z,12.83
2023-04-21T13:26:18.815Z,8.07
2023-04-21T13:28:48.606Z,16.00
2023-04-21T13:31:21.135Z,15.87
2023-04-21T13:33:53.027Z,8.63
2023-04-21T13:36:23.683Z,8.80
2023-04-21T13:38:54.131Z,13.43
2023-04-21T13:41:23.884Z,14.53
2023-04-21T13:43:53.605Z,12.47
2023-04-21T13:46:25.952Z,14.13
2023-04-21T13:48:55.743Z,16.43
2023-04-21T13:51:25.626Z,20.30
2023-04-21T13:53:55.360Z,10.67
2023-04-21T13:56:25.653Z,8.57
2023-04-21T13:58:55.396Z,9.43
2023-04-21T14:01:27.951Z,13.70
2023-04-21T14:03:57.866Z,6.67
2023-04-21T14:06:28.122Z,15.57
2023-04-21T14:08:57.876Z,23.43
2023-04-21T14:11:27.669Z,12.03
2023-04-21T14:14:09.114Z,8.90
2023-04-21T14:16:42.281Z,8.70
2023-04-21T14:19:12.057Z,17.10
2023-04-21T14:21:41.759Z,11.03
2023-04-21T14:24:11.913Z,11.33
2023-04-21T14:26:41.652Z,11.43
2023-04-21T14:29:11.395Z,13.00
2023-04-21T14:31:43.799Z,11.13
2023-04-21T14:34:13.650Z,9.23
2023-04-21T14:36:43.556Z,8.67
2023-04-21T14:39:13.296Z,10.37
2023-04-21T14:41:43.024Z,16.83
2023-04-21T14:44:12.873Z,7.30
2023-04-21T14:46:53.336Z,10.47
2023-04-21T14:49:31.500Z,11.87
2023-04-21T14:52:01.467Z,9.53
2023-04-21T14:54:31.237Z,12.23
2023-04-21T14:57:17.561Z,11.63
2023-04-21T14:59:48.333Z,14.53
2023-04-21T15:02:22.040Z,12.83
2023-04-21T15:04:52.776Z,8.97
2023-04-21T15:07:24.858Z,16.20
2023-04-21T15:09:55.644Z,9.03
2023-04-21T15:12:25.506Z,11.30
2023-04-21T15:14:55.301Z,8.23
2023-04-21T15:17:27.723Z,7.67
2023-04-21T15:19:57.477Z,15.00
2023-04-21T15:22:27.475Z,14.33
2023-04-21T15:24:57.334Z,12.33
2023-04-21T15:27:27.064Z,9.40
2023-04-21T15:29:56.941Z,10.53
2023-04-21T15:32:29.396Z,7.37
2023-04-21T15:34:59.163Z,10.23
2023-04-21T15:37:28.927Z,12.90
2023-04-21T15:39:58.897Z,11.23
2023-04-21T15:42:28.798Z,7.93
2023-04-21T15:44:58.698Z,11.67
2023-04-21T15:47:32.138Z,10.73
2023-04-21T15:50:02.003Z,10.70
2023-04-21T15:52:31.945Z,13.17
2023-04-21T15:55:01.708Z,13.40
2023-04-21T15:57:31.555Z,9.17
2023-04-21T16:00:01.343Z,8.23
2023-04-21T16:02:34.100Z,10.20
2023-04-21T16:05:04.272Z,9.70
2023-04-21T16:07:34.436Z,9.30
2023-04-21T16:10:04.378Z,11.50
2023-04-21T16:12:34.161Z,15.93
2023-04-21T16:15:20.152Z,12.80
2023-04-21T16:17:55.888Z,14.13
2023-04-21T16:20:25.685Z,11.17
2023-04-21T16:22:55.446Z,12.40
2023-04-21T16:25:25.221Z,22.17
2023-04-21T16:27:55.245Z,15.10
2023-04-21T16:30:25.162Z,11.53
2023-04-21T16:32:57.436Z,8.20
2023-04-21T16:35:27.337Z,15.33
2023-04-21T16:37:57.376Z,9.37
2023-04-21T16:40:27.803Z,8.47
2023-04-21T16:42:57.619Z,39.90
2023-04-21T16:45:27.412Z,8.90
2023-04-21T16:48:00.173Z,9.90
2023-04-21T16:50:30.271Z,7.87
2023-04-21T16:52:59.999Z,8.40
2023-04-21T16:55:31.585Z,12.03
2023-04-21T16:58:02.203Z,9.27
2023-04-21T17:00:32.105Z,8.87
2023-04-21T17:03:04.636Z,7.57
2023-04-21T17:05:34.478Z,9.80
2023-04-21T17:08:05.590Z,14.10
2023-04-21T17:10:35.492Z,5.57
2023-04-21T17:13:06.243Z,9.73
2023-04-21T17:15:36.277Z,16.50
2023-04-21T17:18:08.793Z,10.40
2023-04-21T17:20:38.737Z,10.57
2023-04-21T17:23:08.481Z,6.20
2023-04-21T17:25:38.324Z,11.57
2023-04-21T17:28:08.503Z,10.83
2023-04-21T17:30:38.704Z,18.53
2023-04-21T17:33:17.002Z,12.93
2023-04-21T17:36:02.098Z,12.00
2023-04-21T17:38:32.462Z,10.47
2023-04-21T17:41:03.117Z,5.13
2023-04-21T17:43:32.877Z,5.53
2023-04-21T17:46:02.713Z,7.53
2023-04-21T17:48:35.084Z,6.17
2023-04-21T17:51:04.855Z,5.10
2023-04-21T17:53:34.853Z,8.70
2023-04-21T17:56:04.774Z,13.67
2023-04-21T17:58:34.800Z,12.03
2023-04-21T18:01:04.556Z,9.83
2023-04-21T18:03:41.453Z,6.87
2023-04-21T18:06:16.073Z,7.60
2023-04-21T18:08:46.020Z,6.83
2023-04-21T18:11:16.162Z,8.97
2023-04-21T18:13:45.954Z,8.63
2023-04-21T18:16:15.767Z,5.50
2023-04-21T18:18:48.119Z,7.03
2023-04-21T18:21:17.897Z,11.10
2023-04-21T18:23:47.783Z,8.53
2023-04-21T18:26:17.566Z,12.23
2023-04-21T18:28:47.405Z,15.87
2023-04-21T18:31:17.588Z,10.50
2023-04-21T18:33:50.299Z,7.00
2023-04-21T18:36:20.222Z,5.57
2023-04-21T18:38:50.488Z,8.70
2023-04-21T18:41:20.513Z,9.63
2023-04-21T18:43:50.542Z,10.20
2023-04-21T18:46:20.334Z,14.47
2023-04-21T18:48:53.391Z,7.87
2023-04-21T18:51:23.131Z,6.00
2023-04-21T18:53:52.905Z,10.00
2023-04-21T18:56:22.618Z,11.53
2023-04-21T18:58:52.336Z,9.70
2023-04-21T19:01:22.154Z,13.90
2023-04-21T19:03:54.951Z,8.70
2023-04-21T19:06:24.785Z,12.50
2023-04-21T19:08:55.138Z,17.00
2023-04-21T19:11:24.865Z,13.03
2023-04-21T19:13:54.706Z,8.47
2023-04-21T19:16:24.510Z,10.33
2023-04-21T19:18:57.226Z,10.30
2023-04-21T19:21:26.983Z,7.10
2023-04-21T19:23:57.907Z,7.70
2023-04-21T19:26:27.942Z,7.10
2023-04-21T19:28:57.736Z,9.07
2023-04-21T19:31:28.381Z,9.47
2023-04-21T19:34:00.799Z,22.23
2023-04-21T19:36:31.626Z,9.20
2023-04-21T19:39:01.838Z,11.97
2023-04-21T19:41:31.888Z,10.63
2023-04-21T19:44:01.759Z,12.50
2023-04-21T19:46:32.369Z,9.90
2023-04-21T19:49:04.719Z,11.87
2023-04-21T19:51:34.541Z,13.80
2023-04-21T19:54:11.266Z,7.40
2023-04-21T19:56:42.267Z,9.40
2023-04-21T19:59:12.026Z,13.60
2023-04-21T20:01:41.786Z,14.17
2023-04-21T20:04:14.265Z,10.13
2023-04-21T20:06:44.355Z,10.80
2023-04-21T20:09:14.133Z,7.43
2023-04-21T20:11:43.938Z,17.03
2023-04-21T20:14:14.063Z,11.50
2023-04-21T20:16:46.176Z,10.27
2023-04-21T20:19:19.062Z,8.63
2023-04-21T20:21:49.923Z,14.30
2023-04-21T20:24:19.690Z,19.57
2023-04-21T20:26:49.452Z,13.90
2023-04-21T20:29:19.241Z,7.33
2023-04-21T20:31:48.979Z,7.30
2023-04-21T20:34:21.364Z,10.90
2023-04-21T20:36:51.786Z,17.67
2023-04-21T20:39:21.618Z,7.97
2023-04-21T20:42:04.704Z,11.10
2023-04-21T20:44:42.855Z,12.60
2023-04-21T20:47:13.431Z,12.70
2023-04-21T20:49:47.610Z,12.40
2023-04-21T20:52:18.206Z,10.80
2023-04-21T20:54:47.934Z,11.37
2023-04-21T20:57:18.210Z,10.17
2023-04-21T20:59:48.013Z,10.10
2023-04-21T21:02:17.833Z,20.33
2023-04-21T21:04:50.350Z,8.93
2023-04-21T21:07:20.125Z,11.27
2023-04-21T21:09:49.864Z,11.20
2023-04-21T21:12:19.677Z,8.63
2023-04-21T21:14:49.493Z,8.33
2023-04-21T21:17:19.351Z,13.20
2023-04-21T21:19:51.845Z,27.40
2023-04-21T21:22:21.569Z,14.67
2023-04-21T21:24:51.424Z,13.93
2023-04-21T21:27:21.372Z,11.53
2023-04-21T21:29:51.620Z,9.80
2023-04-21T21:32:21.534Z,10.67
2023-04-21T21:34:53.953Z,9.13
2023-04-21T21:37:24.594Z,15.03
2023-04-21T21:39:55.473Z,16.60
2023-04-21T21:42:25.404Z,14.20
2023-04-21T21:44:55.533Z,13.80
2023-04-21T21:47:25.339Z,8.90
2023-04-21T21:49:59.095Z,16.60
2023-04-21T21:52:29.037Z,12.40
2023-04-21T21:54:58.930Z,23.67
2023-04-21T21:57:28.811Z,13.33
2023-04-21T22:00:00.556Z,16.63
2023-04-21T22:02:30.561Z,13.33
2023-04-21T22:05:04.573Z,11.67
2023-04-21T22:07:35.604Z,13.37
2023-04-21T22:10:05.700Z,14.50
2023-04-21T22:12:35.677Z,11.97
2023-04-21T22:15:07.102Z,18.40
2023-04-21T22:17:38.129Z,12.73
2023-04-21T22:20:12.316Z,13.17
2023-04-21T22:22:42.112Z,11.50
2023-04-21T22:25:13.570Z,12.40
2023-04-21T22:27:43.393Z,18.80
2023-04-21T22:30:14.137Z,24.37
2023-04-21T22:32:43.920Z,12.27
2023-04-21T22:35:16.361Z,13.57
2023-04-21T22:37:46.129Z,8.70
2023-04-21T22:40:16.250Z,11.53
2023-04-21T22:42:46.043Z,12.60
2023-04-21T22:45:15.953Z,10.90
2023-04-21T22:47:45.769Z,20.03
2023-04-21T22:50:18.296Z,17.80
2023-04-21T22:52:48.184Z,14.60
2023-04-21T22:55:18.000Z,13.87
2023-04-21T22:57:47.799Z,20.00
2023-04-21T23:00:17.862Z,12.80
2023-04-21T23:02:47.934Z,14.27
2023-04-21T23:05:20.508Z,18.73
2023-04-21T23:07:50.308Z,16.97
2023-04-21T23:10:20.303Z,9.13
2023-04-21T23:12:50.018Z,11.13
2023-04-21T23:15:19.828Z,21.70
2023-04-21T23:17:49.615Z,17.13
2023-04-21T23:20:22.266Z,13.70
2023-04-21T23:22:52.366Z,17.83
2023-04-21T23:25:22.321Z,13.97
2023-04-21T23:27:52.141Z,18.23
2023-04-21T23:30:21.989Z,15.63
2023-04-21T23:32:51.848Z,13.83
2023-04-21T23:35:24.252Z,17.00
2023-04-21T23:37:54.012Z,12.63
2023-04-21T23:40:23.791Z,20.10
2023-04-21T23:42:53.686Z,17.43
2023-04-21T23:45:23.703Z,13.07
2023-04-21T23:47:53.490Z,14.20
2023-04-21T23:50:25.898Z,12.90
2023-04-21T23:52:56.092Z,12.60
2023-04-21T23:55:26.028Z,17.13
2023-04-21T23:57:55.847Z,15.30
